Dades meteomassalio
Diari Summary for Setembre 7, 2017 Units:  English    Metric   Both
« Previous Day
Next Day »
Diari Semanal Mensual Anual Personalitzat
  Maxima: Minima: Mijana:
Temperatura: TemperatureC °F 13.3 °F 19.5 °F
Rosada: DewpointC °F 6.1 °F 9.4 °F
Humitat: Humidity % 34 % 54 %
Velocitat del vent: WindSpeedKMH mph 0.0 mph 20.7 mph
Racha vent: WindSpeedGustKMH mph - -
Vent:- - SSW
Pressio: PressurehPa in 1017.2 in -
Pluja: 0.0 in    
Historical Graphs
 
 
Tabular Data for Setembre 7, 2017
Time Temperature Dew Point Pressure Wind Wind Speed Wind Gust Humidity Rainfall Rate (Hourly) solar Conditions
TemperatureC °F DewpointC °F PressurehPa in Calm     Humidity % HourlyPrecipMM in SolarRadiationWatts/m^2 W/m2 Conditions
00:02 18.9 °F 10.7 °F 1023.2 in SW 20.4 mph 20.4 mph 59 % 0.0 in 0.0 W/m2 CLR
00:07 18.9 °F 10.7 °F 1023.2 in SW 31.5 mph 31.5 mph 59 % 0.0 in 0.0 W/m2 CLR
00:12 18.3 °F 10.4 °F 1023.2 in South 18.5 mph 18.5 mph 60 % 0.0 in 0.0 W/m2 CLR
00:13 18.3 °F 10.4 °F 1023.2 in SW 22.2 mph 22.2 mph 60 % 0.0 in 0.0 W/m2 CLR
00:17 18.3 °F 10.4 °F 1023.2 in SSW 18.5 mph 18.5 mph 60 % 0.0 in 0.0 W/m2 CLR
00:22 18.3 °F 10.4 °F 1023.6 in SW 27.8 mph 27.8 mph 60 % 0.0 in 0.0 W/m2 CLR
00:27 18.3 °F 10.4 °F 1023.6 in SSW 25.9 mph 25.9 mph 60 % 0.0 in 0.0 W/m2 CLR
00:32 18.3 °F 10.7 °F 1023.6 in WSW 24.1 mph 24.1 mph 61 % 0.0 in 0.0 W/m2 CLR
00:37 18.3 °F 10.7 °F 1023.6 in SSW 16.7 mph 16.7 mph 61 % 0.0 in 0.0 W/m2 CLR
00:42 18.3 °F 10.7 °F 1023.6 in SSW 25.7 mph 25.7 mph 61 % 0.0 in 0.0 W/m2 CLR
00:47 18.3 °F 10.7 °F 1023.6 in SSW 29.6 mph 29.6 mph 61 % 0.0 in 0.0 W/m2 CLR
00:52 18.3 °F 10.7 °F 1023.6 in SSW 25.9 mph 25.9 mph 61 % 0.0 in 0.0 W/m2 CLR
00:58 18.3 °F 10.7 °F 1023.6 in SSW 20.4 mph 20.4 mph 61 % 0.0 in 0.0 W/m2 CLR
01:03 18.3 °F 10.9 °F 1023.6 in SW 29.6 mph 29.6 mph 62 % 0.0 in 0.0 W/m2 CLR
01:08 17.8 °F 10.4 °F 1023.6 in SSW 20.4 mph 20.4 mph 62 % 0.0 in 0.0 W/m2 CLR
01:13 17.8 °F 10.4 °F 1023.2 in South 25.9 mph 25.9 mph 62 % 0.0 in 0.0 W/m2 CLR
01:18 17.8 °F 10.4 °F 1023.2 in SSW 20.4 mph 20.4 mph 62 % 0.0 in 0.0 W/m2 CLR
01:23 17.8 °F 10.2 °F 1023.2 in SSW 31.5 mph 31.5 mph 61 % 0.0 in 0.0 W/m2 CLR
01:28 17.8 °F 10.2 °F 1023.2 in SSW 20.9 mph 20.9 mph 61 % 0.0 in 0.0 W/m2 CLR
01:33 17.8 °F 10.2 °F 1023.2 in SSW 33.3 mph 33.3 mph 61 % 0.0 in 0.0 W/m2 CLR
01:38 17.2 °F 9.6 °F 1023.2 in SSW 27.8 mph 27.8 mph 61 % 0.0 in 0.0 W/m2 CLR
01:43 17.2 °F 9.9 °F 1023.2 in SSW 24.1 mph 24.1 mph 62 % 0.0 in 0.0 W/m2 CLR
01:48 17.2 °F 9.9 °F 1023.2 in SSW 20.4 mph 20.4 mph 62 % 0.0 in 0.0 W/m2 CLR
01:53 17.2 °F 9.9 °F 1022.9 in SSW 27.8 mph 27.8 mph 62 % 0.0 in 0.0 W/m2 CLR
01:58 17.2 °F 9.9 °F 1022.9 in WSW 22.2 mph 22.2 mph 62 % 0.0 in 0.0 W/m2 CLR
02:03 17.2 °F 9.9 °F 1022.9 in South 25.9 mph 25.9 mph 62 % 0.0 in 0.0 W/m2 CLR
02:08 17.2 °F 9.9 °F 1022.9 in SW 29.6 mph 29.6 mph 62 % 0.0 in 0.0 W/m2 CLR
02:13 17.2 °F 9.9 °F 1022.6 in SW 29.6 mph 29.6 mph 62 % 0.0 in 0.0 W/m2 CLR
02:18 17.2 °F 10.1 °F 1022.6 in SSW 29.6 mph 29.6 mph 63 % 0.0 in 0.0 W/m2 CLR
02:23 17.2 °F 10.1 °F 1022.6 in SSW 19.3 mph 19.3 mph 63 % 0.0 in 0.0 W/m2 CLR
02:28 17.2 °F 10.1 °F 1022.9 in SSW 22.2 mph 22.2 mph 63 % 0.0 in 0.0 W/m2 CLR
02:34 16.7 °F 9.6 °F 1022.6 in SSW 22.2 mph 22.2 mph 63 % 0.0 in 0.0 W/m2 CLR
02:39 16.7 °F 9.6 °F 1022.6 in SSW 25.9 mph 25.9 mph 63 % 0.0 in 0.0 W/m2 CLR
02:44 16.7 °F 9.6 °F 1022.9 in SSW 16.7 mph 16.7 mph 63 % 0.0 in 0.0 W/m2 CLR
02:49 16.7 °F 9.6 °F 1022.9 in SSW 17.7 mph 17.7 mph 63 % 0.0 in 0.0 W/m2 CLR
02:54 16.7 °F 9.8 °F 1022.6 in SSW 18.5 mph 18.5 mph 64 % 0.0 in 0.0 W/m2 CLR
02:59 16.7 °F 9.8 °F 1022.6 in SSW 19.3 mph 19.3 mph 64 % 0.0 in 0.0 W/m2 CLR
03:04 16.7 °F 9.8 °F 1022.6 in SSW 18.5 mph 18.5 mph 64 % 0.0 in 0.0 W/m2 CLR
03:09 16.7 °F 9.8 °F 1022.9 in SSW 24.1 mph 25.1 mph 64 % 0.0 in 0.0 W/m2 CLR
03:14 16.7 °F 9.8 °F 1022.9 in South 18.5 mph 18.5 mph 64 % 0.0 in 0.0 W/m2 CLR
03:19 16.7 °F 9.8 °F 1022.9 in SSW 19.3 mph 19.3 mph 64 % 0.0 in 0.0 W/m2 CLR
03:24 16.7 °F 9.8 °F 1022.9 in SSW 20.9 mph 20.9 mph 64 % 0.0 in 0.0 W/m2 CLR
03:34 16.1 °F 9.5 °F 1022.6 in SSW 22.2 mph 22.2 mph 65 % 0.0 in 0.0 W/m2 CLR
03:39 16.1 °F 9.5 °F 1022.9 in South 20.9 mph 20.9 mph 65 % 0.0 in 0.0 W/m2 CLR
03:44 16.1 °F 9.5 °F 1022.6 in SSW 24.1 mph 24.1 mph 65 % 0.0 in 0.0 W/m2 CLR
03:49 16.1 °F 9.5 °F 1022.6 in SW 29.6 mph 29.6 mph 65 % 0.0 in 0.0 W/m2 CLR
03:54 16.1 °F 9.5 °F 1022.6 in SW 18.5 mph 18.5 mph 65 % 0.0 in 0.0 W/m2 CLR
03:59 16.1 °F 9.5 °F 1022.6 in South 24.1 mph 24.1 mph 65 % 0.0 in 0.0 W/m2 CLR
04:04 16.1 °F 9.5 °F 1022.6 in SSW 29.6 mph 29.6 mph 65 % 0.0 in 0.0 W/m2 CLR
04:09 16.1 °F 9.8 °F 1022.6 in South 16.7 mph 16.7 mph 66 % 0.0 in 0.0 W/m2 CLR
04:14 16.1 °F 9.8 °F 1022.6 in South 14.8 mph 14.8 mph 66 % 0.0 in 0.0 W/m2 CLR
04:19 16.1 °F 9.8 °F 1022.6 in SSW 27.8 mph 27.8 mph 66 % 0.0 in 0.0 W/m2 CLR
04:24 16.1 °F 9.8 °F 1022.6 in South 20.4 mph 20.4 mph 66 % 0.0 in 0.0 W/m2 CLR
04:29 15.6 °F 9.2 °F 1022.6 in SSW 18.5 mph 18.5 mph 66 % 0.0 in 0.0 W/m2 CLR
04:34 15.6 °F 9.2 °F 1022.6 in SW 18.5 mph 18.5 mph 66 % 0.0 in 0.0 W/m2 CLR
04:39 15.6 °F 9.2 °F 1022.6 in South 14.8 mph 14.8 mph 66 % 0.0 in 0.0 W/m2 CLR
04:44 15.6 °F 9.2 °F 1022.6 in SSW 24.1 mph 24.1 mph 66 % 0.0 in 0.0 W/m2 CLR
04:49 15.6 °F 9.2 °F 1022.6 in SSW 22.5 mph 22.5 mph 66 % 0.0 in 0.0 W/m2 CLR
04:54 15.6 °F 9.4 °F 1022.6 in SSW 18.5 mph 18.5 mph 67 % 0.0 in 0.0 W/m2 CLR
04:59 15.6 °F 9.4 °F 1022.6 in SSW 14.8 mph 14.8 mph 67 % 0.0 in 0.0 W/m2 CLR
05:04 15.6 °F 9.4 °F 1022.6 in South 18.5 mph 18.5 mph 67 % 0.0 in 0.0 W/m2 CLR
05:09 15.6 °F 9.4 °F 1022.2 in SSW 20.4 mph 20.4 mph 67 % 0.0 in 0.0 W/m2 CLR
05:16 15.6 °F 9.4 °F 1022.2 in South 20.4 mph 20.4 mph 67 % 0.0 in 0.0 W/m2 CLR
05:20 15.6 °F 9.4 °F 1022.2 in SSE 11.3 mph 11.3 mph 67 % 0.0 in 0.0 W/m2 CLR
05:21 15.6 °F 9.7 °F 1022.2 in SSW 14.8 mph 14.8 mph 68 % 0.0 in 0.0 W/m2 CLR
05:23 15.6 °F 9.7 °F 1022.2 in SSW 9.3 mph 9.3 mph 68 % 0.0 in 0.0 W/m2 CLR
05:26 15.6 °F 9.7 °F 1022.2 in SSE 13.0 mph 13.0 mph 68 % 0.0 in 0.0 W/m2 CLR
05:31 15.6 °F 9.7 °F 1022.2 in SSW 13.0 mph 13.0 mph 68 % 0.0 in 0.0 W/m2 CLR
05:36 15.6 °F 9.7 °F 1022.2 in SE 9.3 mph 9.3 mph 68 % 0.0 in 0.0 W/m2 CLR
05:41 15.6 °F 9.7 °F 1022.2 in South 4.8 mph 4.8 mph 68 % 0.0 in 0.0 W/m2 CLR
05:46 15.6 °F 9.7 °F 1022.2 in SSE 7.4 mph 7.4 mph 68 % 0.0 in 0.0 W/m2 CLR
05:51 15.0 °F 9.1 °F 1022.2 in South 5.6 mph 5.6 mph 68 % 0.0 in 0.0 W/m2 CLR
05:56 15.0 °F 9.3 °F 1021.9 in SSE 13.0 mph 13.0 mph 69 % 0.0 in 0.0 W/m2 CLR
06:01 15.0 °F 9.3 °F 1021.9 in SSE 9.7 mph 9.7 mph 69 % 0.0 in 0.0 W/m2 CLR
06:06 14.4 °F 8.8 °F 1021.9 in Calm     69 % 0.0 in 0.0 W/m2 CLR
06:11 14.4 °F 8.8 °F 1021.9 in SSE 9.3 mph 9.3 mph 69 % 0.0 in 0.0 W/m2 CLR
06:16 14.4 °F 8.8 °F 1021.9 in South 16.7 mph 16.7 mph 69 % 0.0 in 0.0 W/m2 CLR
06:21 14.4 °F 8.8 °F 1021.6 in South 20.4 mph 20.4 mph 69 % 0.0 in 0.0 W/m2 CLR
06:27 14.4 °F 8.6 °F 1021.6 in South 16.7 mph 16.7 mph 68 % 0.0 in 0.0 W/m2 CLR
06:32 14.4 °F 8.6 °F 1021.6 in South 16.7 mph 16.7 mph 68 % 0.0 in 0.0 W/m2 CLR
06:37 14.4 °F 8.6 °F 1021.6 in South 18.5 mph 18.5 mph 68 % 0.0 in 0.0 W/m2 CLR
06:42 14.4 °F 8.6 °F 1021.6 in SE 14.8 mph 14.8 mph 68 % 0.0 in 0.0 W/m2 CLR
06:47 15.0 °F 9.3 °F 1021.6 in SSE 14.8 mph 14.8 mph 69 % 0.0 in 0.0 W/m2 CLR
06:52 15.0 °F 9.3 °F 1021.6 in SSE 7.4 mph 7.4 mph 69 % 0.0 in 0.0 W/m2 CLR
06:57 15.0 °F 9.6 °F 1021.6 in South 16.7 mph 16.7 mph 70 % 0.0 in 0.0 W/m2 CLR
07:02 14.4 °F 9.1 °F 1021.9 in Calm     70 % 0.0 in 0.0 W/m2 CLR
07:07 14.4 °F 9.1 °F 1021.9 in Calm     70 % 0.0 in 0.0 W/m2 CLR
07:12 13.9 °F 8.7 °F 1021.6 in South 11.3 mph 11.3 mph 71 % 0.0 in 0.0 W/m2 CLR
07:17 13.3 °F 8.2 °F 1021.9 in South 9.3 mph 9.3 mph 71 % 0.0 in 0.0 W/m2 CLR
07:22 13.3 °F 8.2 °F 1021.9 in South 11.1 mph 11.1 mph 71 % 0.0 in 0.0 W/m2 CLR
07:27 13.3 °F 8.2 °F 1021.9 in SSE 11.1 mph 11.1 mph 71 % 0.0 in 0.0 W/m2 OVC
07:32 13.3 °F 8.2 °F 1021.9 in SSW 14.8 mph 14.8 mph 71 % 0.0 in 0.0 W/m2 OVC
07:37 13.3 °F 8.2 °F 1021.9 in South 18.5 mph 18.5 mph 71 % 0.0 in 7.0 W/m2 OVC
07:42 13.3 °F 8.2 °F 1021.9 in South 14.8 mph 14.8 mph 71 % 0.0 in 11.0 W/m2 BKN
07:47 13.3 °F 8.2 °F 1021.9 in South 9.7 mph 9.7 mph 71 % 0.0 in 16.0 W/m2 BKN
07:52 13.3 °F 8.2 °F 1021.9 in SSE 13.0 mph 13.0 mph 71 % 0.0 in 19.0 W/m2 BKN
07:57 13.9 °F 8.7 °F 1021.9 in SSE 14.5 mph 14.5 mph 71 % 0.0 in 25.0 W/m2 BKN
08:02 13.9 °F 8.7 °F 1021.9 in SSE 18.5 mph 18.5 mph 71 % 0.0 in 30.0 W/m2 BKN
08:07 14.4 °F 9.2 °F 1021.9 in SE 11.1 mph 11.1 mph 71 % 0.0 in 39.0 W/m2 BKN
08:12 14.4 °F 9.2 °F 1022.2 in SSE 11.1 mph 11.1 mph 71 % 0.0 in 46.0 W/m2 SCT
08:17 14.4 °F 9.2 °F 1021.9 in South 11.1 mph 11.1 mph 71 % 0.0 in 60.0 W/m2 SCT
08:22 14.4 °F 9.2 °F 1022.2 in South 18.5 mph 18.5 mph 71 % 0.0 in 67.0 W/m2 FEW
08:27 14.4 °F 9.1 °F 1022.2 in SSE 18.5 mph 18.5 mph 70 % 0.0 in 74.0 W/m2 FEW
08:32 15.0 °F 9.6 °F 1022.2 in SSE 16.7 mph 16.7 mph 70 % 0.0 in 70.0 W/m2 FEW
08:37 15.0 °F 9.6 °F 1022.2 in SSE 18.5 mph 18.5 mph 70 % 0.0 in 97.0 W/m2 FEW
08:42 15.0 °F 9.3 °F 1022.2 in South 12.9 mph 12.9 mph 69 % 0.0 in 56.0 W/m2 FEW
08:47 15.0 °F 9.3 °F 1021.9 in South 14.8 mph 14.8 mph 69 % 0.0 in 69.0 W/m2 SCT
08:52 15.0 °F 9.1 °F 1021.9 in South 24.1 mph 24.1 mph 68 % 0.0 in 163.0 W/m2 FEW
08:57 15.6 °F 9.7 °F 1021.9 in SSW 20.4 mph 20.4 mph 68 % 0.0 in 181.0 W/m2 CLR
09:02 15.6 °F 9.7 °F 1021.9 in South 22.2 mph 22.2 mph 68 % 0.0 in 195.0 W/m2 CLR
09:07 15.6 °F 9.4 °F 1021.9 in SSW 20.4 mph 20.4 mph 67 % 0.0 in 211.0 W/m2 CLR
09:12 16.1 °F 10.0 °F 1021.9 in South 20.4 mph 20.4 mph 67 % 0.0 in 230.0 W/m2 CLR
09:17 16.1 °F 9.8 °F 1021.9 in SSW 27.8 mph 27.8 mph 66 % 0.0 in 244.0 W/m2 CLR
09:22 16.1 °F 9.8 °F 1021.9 in SSW 18.5 mph 18.5 mph 66 % 0.0 in 264.0 W/m2 CLR
09:27 16.7 °F 10.1 °F 1021.9 in SW 31.5 mph 31.5 mph 65 % 0.0 in 278.0 W/m2 CLR
09:32 16.7 °F 10.1 °F 1022.2 in SSW 24.1 mph 24.1 mph 65 % 0.0 in 292.0 W/m2 CLR
09:37 16.7 °F 10.1 °F 1022.2 in SW 35.2 mph 35.2 mph 65 % 0.0 in 309.0 W/m2 CLR
09:42 16.7 °F 10.3 °F 1022.2 in SW 22.2 mph 22.2 mph 66 % 0.0 in 327.0 W/m2 CLR
09:47 16.7 °F 10.1 °F 1022.2 in SW 31.5 mph 31.5 mph 65 % 0.0 in 334.0 W/m2 CLR
09:52 17.2 °F 10.6 °F 1022.2 in WSW 24.1 mph 24.1 mph 65 % 0.0 in 352.0 W/m2 CLR
09:57 17.2 °F 10.6 °F 1022.2 in SSW 27.8 mph 27.8 mph 65 % 0.0 in 373.0 W/m2 CLR
10:02 17.2 °F 10.3 °F 1022.2 in SW 27.8 mph 27.8 mph 64 % 0.0 in 387.0 W/m2 CLR
10:07 17.2 °F 10.3 °F 1022.2 in SW 25.9 mph 25.9 mph 64 % 0.0 in 399.0 W/m2 CLR
10:12 17.2 °F 10.1 °F 1022.2 in SSW 25.9 mph 25.9 mph 63 % 0.0 in 411.0 W/m2 CLR
10:17 17.8 °F 10.6 °F 1022.2 in SSW 25.9 mph 25.9 mph 63 % 0.0 in 429.0 W/m2 CLR
10:22 17.2 °F 10.1 °F 1022.2 in SW 31.5 mph 31.5 mph 63 % 0.0 in 446.0 W/m2 CLR
10:27 17.8 °F 10.4 °F 1022.2 in WSW 25.9 mph 25.9 mph 62 % 0.0 in 461.0 W/m2 CLR
10:32 17.8 °F 10.6 °F 1022.2 in SW 19.3 mph 19.3 mph 63 % 0.0 in 464.0 W/m2 CLR
10:38 17.8 °F 10.2 °F 1022.6 in SW 29.0 mph 29.0 mph 61 % 0.0 in 489.0 W/m2 CLR
10:43 18.3 °F 10.9 °F 1022.6 in SW 22.2 mph 22.2 mph 62 % 0.0 in 504.0 W/m2 CLR
10:48 18.3 °F 10.7 °F 1022.2 in South 20.4 mph 20.4 mph 61 % 0.0 in 522.0 W/m2 CLR
10:52 18.3 °F 10.7 °F 1022.6 in SW 25.9 mph 25.9 mph 61 % 0.0 in 533.0 W/m2 CLR
10:57 18.3 °F 10.7 °F 1022.2 in SW 22.2 mph 22.2 mph 61 % 0.0 in 536.0 W/m2 CLR
11:03 18.3 °F 10.7 °F 1022.2 in SSW 16.7 mph 16.7 mph 61 % 0.0 in 555.0 W/m2 CLR
11:08 18.3 °F 10.4 °F 1022.6 in WSW 25.9 mph 25.9 mph 60 % 0.0 in 577.0 W/m2 CLR
11:13 18.9 °F 10.7 °F 1022.2 in SSW 25.9 mph 25.9 mph 59 % 0.0 in 591.0 W/m2 CLR
11:18 18.9 °F 10.7 °F 1022.2 in WSW 20.4 mph 20.4 mph 59 % 0.0 in 591.0 W/m2 CLR
11:23 18.9 °F 10.7 °F 1022.2 in SW 24.1 mph 24.1 mph 59 % 0.0 in 605.0 W/m2 CLR
11:28 19.4 °F 10.9 °F 1022.2 in West 20.4 mph 20.4 mph 58 % 0.0 in 555.0 W/m2 CLR
11:33 19.4 °F 10.4 °F 1022.2 in SSW 25.9 mph 25.9 mph 56 % 0.0 in 587.0 W/m2 CLR
11:38 19.4 °F 10.9 °F 1022.2 in SSW 18.5 mph 19.6 mph 58 % 0.0 in 622.0 W/m2 CLR
11:43 20.0 °F 11.2 °F 1022.2 in SW 27.8 mph 27.8 mph 57 % 0.0 in 647.0 W/m2 CLR
11:48 20.0 °F 11.2 °F 1021.9 in SW 27.4 mph 27.4 mph 57 % 0.0 in 675.0 W/m2 CLR
11:53 20.0 °F 10.9 °F 1022.2 in SW 25.9 mph 25.9 mph 56 % 0.0 in 680.0 W/m2 CLR
11:58 20.0 °F 10.7 °F 1022.2 in SSW 29.6 mph 29.6 mph 55 % 0.0 in 689.0 W/m2 CLR
12:03 20.6 °F 11.2 °F 1022.2 in South 18.5 mph 18.5 mph 55 % 0.0 in 694.0 W/m2 CLR
12:08 21.1 °F 11.4 °F 1022.2 in SW 13.0 mph 13.0 mph 54 % 0.0 in 707.0 W/m2 CLR
12:13 21.1 °F 11.7 °F 1022.2 in SSW 27.8 mph 27.8 mph 55 % 0.0 in 714.0 W/m2 CLR
12:18 20.6 °F 10.7 °F 1021.9 in SW 31.5 mph 31.5 mph 53 % 0.0 in 721.0 W/m2 CLR
12:23 21.1 °F 11.2 °F 1021.9 in South 25.9 mph 25.9 mph 53 % 0.0 in 729.0 W/m2 CLR
12:28 21.1 °F 11.2 °F 1021.9 in SW 20.9 mph 20.9 mph 53 % 0.0 in 733.0 W/m2 CLR
12:33 21.1 °F 10.9 °F 1021.9 in South 25.7 mph 25.7 mph 52 % 0.0 in 740.0 W/m2 CLR
12:38 21.1 °F 10.6 °F 1021.9 in SW 18.5 mph 18.5 mph 51 % 0.0 in 752.0 W/m2 CLR
12:43 21.7 °F 11.1 °F 1021.6 in SSW 20.4 mph 20.4 mph 51 % 0.0 in 759.0 W/m2 CLR
12:48 21.7 °F 10.8 °F 1021.6 in SSW 24.1 mph 24.1 mph 50 % 0.0 in 766.0 W/m2 CLR
12:53 21.7 °F 10.8 °F 1021.6 in SSE 22.2 mph 22.2 mph 50 % 0.0 in 772.0 W/m2 CLR
12:58 22.2 °F 10.7 °F 1021.6 in SW 25.9 mph 25.9 mph 48 % 0.0 in 780.0 W/m2 CLR
13:03 22.2 °F 11.0 °F 1021.2 in SW 24.1 mph 24.1 mph 49 % 0.0 in 786.0 W/m2 CLR
13:08 22.2 °F 10.4 °F 1021.2 in SSW 25.9 mph 25.9 mph 47 % 0.0 in 793.0 W/m2 CLR
13:13 22.2 °F 10.7 °F 1021.2 in WSW 18.5 mph 18.5 mph 48 % 0.0 in 789.0 W/m2 CLR
13:18 22.8 °F 11.2 °F 1021.2 in West 22.5 mph 22.5 mph 48 % 0.0 in 795.0 W/m2 CLR
13:23 22.8 °F 11.2 °F 1020.9 in SW 16.1 mph 16.1 mph 48 % 0.0 in 793.0 W/m2 CLR
13:28 22.8 °F 10.9 °F 1020.9 in SW 22.2 mph 22.2 mph 47 % 0.0 in 796.0 W/m2 CLR
13:33 22.8 °F 10.9 °F 1020.9 in SW 18.5 mph 18.5 mph 47 % 0.0 in 800.0 W/m2 CLR
13:38 23.3 °F 11.1 °F 1020.5 in SSW 24.1 mph 24.1 mph 46 % 0.0 in 803.0 W/m2 CLR
13:43 22.8 °F 10.6 °F 1020.5 in SSW 29.6 mph 29.6 mph 46 % 0.0 in 809.0 W/m2 CLR
13:48 23.3 °F 10.7 °F 1020.5 in South 18.5 mph 18.5 mph 45 % 0.0 in 812.0 W/m2 CLR
13:53 23.3 °F 10.4 °F 1020.5 in WSW 18.5 mph 18.5 mph 44 % 0.0 in 816.0 W/m2 CLR
13:58 23.3 °F 10.4 °F 1020.5 in SW 25.9 mph 25.9 mph 44 % 0.0 in 809.0 W/m2 CLR
14:03 23.3 °F 10.4 °F 1020.2 in SW 11.1 mph 11.1 mph 44 % 0.0 in 803.0 W/m2 CLR
14:08 23.3 °F 10.1 °F 1020.2 in South 25.9 mph 25.9 mph 43 % 0.0 in 805.0 W/m2 CLR
14:13 23.9 °F 10.9 °F 1020.2 in SW 22.5 mph 22.5 mph 44 % 0.0 in 810.0 W/m2 CLR
14:18 23.9 °F 10.2 °F 1020.2 in SW 25.9 mph 25.9 mph 42 % 0.0 in 807.0 W/m2 CLR
14:23 23.9 °F 10.2 °F 1019.9 in SW 18.5 mph 18.5 mph 42 % 0.0 in 800.0 W/m2 CLR
14:28 23.9 °F 9.4 °F 1019.9 in West 27.8 mph 27.8 mph 40 % 0.0 in 798.0 W/m2 CLR
14:33 24.4 °F 10.7 °F 1019.9 in South 22.2 mph 22.2 mph 42 % 0.0 in 796.0 W/m2 CLR
14:38 23.9 °F 9.4 °F 1019.9 in SSW 22.5 mph 22.5 mph 40 % 0.0 in 791.0 W/m2 CLR
14:43 24.4 °F 10.3 °F 1019.5 in SW 29.6 mph 29.6 mph 41 % 0.0 in 786.0 W/m2 CLR
14:48 23.9 °F 9.8 °F 1019.5 in SSW 27.8 mph 27.8 mph 41 % 0.0 in 780.0 W/m2 CLR
14:53 23.9 °F 9.4 °F 1019.5 in SW 31.5 mph 31.5 mph 40 % 0.0 in 766.0 W/m2 CLR
14:58 24.4 °F 9.6 °F 1019.5 in SW 25.9 mph 25.9 mph 39 % 0.0 in 751.0 W/m2 CLR
15:03 24.4 °F 9.9 °F 1019.2 in WSW 18.5 mph 18.5 mph 40 % 0.0 in 759.0 W/m2 CLR
15:08 24.4 °F 9.6 °F 1019.2 in WSW 16.7 mph 16.7 mph 39 % 0.0 in 744.0 W/m2 CLR
15:13 24.4 °F 9.2 °F 1019.2 in SSW 25.9 mph 25.9 mph 38 % 0.0 in 724.0 W/m2 CLR
15:18 24.4 °F 9.6 °F 1019.2 in SW 22.2 mph 22.2 mph 39 % 0.0 in 703.0 W/m2 CLR
15:23 24.4 °F 9.2 °F 1019.2 in SW 19.3 mph 19.3 mph 38 % 0.0 in 687.0 W/m2 CLR
15:28 24.4 °F 8.8 °F 1018.8 in SSW 25.7 mph 25.7 mph 37 % 0.0 in 686.0 W/m2 CLR
15:33 25.0 °F 9.7 °F 1018.8 in SSW 25.9 mph 25.9 mph 38 % 0.0 in 679.0 W/m2 CLR
15:38 25.0 °F 10.1 °F 1018.8 in SSW 14.8 mph 14.8 mph 39 % 0.0 in 671.0 W/m2 CLR
15:43 25.0 °F 10.1 °F 1018.8 in WSW 18.5 mph 18.5 mph 39 % 0.0 in 663.0 W/m2 CLR
15:48 25.0 °F 9.7 °F 1018.8 in WSW 29.6 mph 29.6 mph 38 % 0.0 in 649.0 W/m2 CLR
15:53 25.0 °F 9.3 °F 1018.5 in SSW 25.9 mph 25.9 mph 37 % 0.0 in 629.0 W/m2 CLR
15:58 25.0 °F 9.7 °F 1018.5 in SW 16.7 mph 16.7 mph 38 % 0.0 in 635.0 W/m2 CLR
16:03 25.0 °F 9.3 °F 1018.5 in WSW 27.8 mph 27.8 mph 37 % 0.0 in 624.0 W/m2 CLR
16:09 25.0 °F 9.3 °F 1018.5 in West 18.5 mph 18.5 mph 37 % 0.0 in 610.0 W/m2 CLR
16:14 24.4 °F 9.2 °F 1018.5 in West 13.0 mph 13.0 mph 38 % 0.0 in 605.0 W/m2 CLR
16:19 25.0 °F 8.9 °F 1018.2 in South 16.7 mph 16.7 mph 36 % 0.0 in 591.0 W/m2 CLR
16:24 25.0 °F 9.3 °F 1018.5 in SW 22.5 mph 22.5 mph 37 % 0.0 in 582.0 W/m2 CLR
16:28 25.6 °F 9.4 °F 1018.2 in WSW 24.1 mph 24.1 mph 36 % 0.0 in 566.0 W/m2 CLR
16:34 25.6 °F 9.8 °F 1018.2 in SW 3.7 mph   37 % 0.0 in 563.0 W/m2 CLR
16:39 25.6 °F 9.4 °F 1018.2 in WSW 24.1 mph 24.1 mph 36 % 0.0 in 559.0 W/m2 CLR
16:44 25.6 °F 9.4 °F 1018.2 in SW 20.4 mph 20.4 mph 36 % 0.0 in 547.0 W/m2 CLR
16:49 25.6 °F 8.9 °F 1018.2 in SW 18.5 mph 18.5 mph 35 % 0.0 in 536.0 W/m2 CLR
16:54 25.6 °F 9.4 °F 1017.8 in WSW 11.1 mph 11.1 mph 36 % 0.0 in 529.0 W/m2 CLR
16:59 25.6 °F 8.6 °F 1017.8 in SSW 16.7 mph 16.7 mph 34 % 0.0 in 510.0 W/m2 CLR
17:04 25.6 °F 8.6 °F 1017.8 in West 22.2 mph 22.2 mph 34 % 0.0 in 504.0 W/m2 CLR
17:09 25.6 °F 8.9 °F 1017.8 in SW 20.4 mph 20.4 mph 35 % 0.0 in 490.0 W/m2 CLR
17:14 25.6 °F 8.9 °F 1017.8 in SW 14.8 mph 14.8 mph 35 % 0.0 in 462.0 W/m2 CLR
17:19 25.6 °F 8.9 °F 1017.8 in SSW 24.1 mph 24.1 mph 35 % 0.0 in 468.0 W/m2 CLR
17:24 25.6 °F 8.9 °F 1017.5 in SSW 9.3 mph 9.3 mph 35 % 0.0 in 455.0 W/m2 CLR
17:29 25.6 °F 8.9 °F 1017.5 in SSE 7.4 mph 7.4 mph 35 % 0.0 in 439.0 W/m2 CLR
17:34 25.6 °F 9.4 °F 1017.5 in SW 18.5 mph 18.5 mph 36 % 0.0 in 420.0 W/m2 CLR
17:39 25.6 °F 8.9 °F 1017.5 in WNW 18.5 mph 18.5 mph 35 % 0.0 in 408.0 W/m2 CLR
17:44 25.6 °F 9.4 °F 1017.5 in SW 19.3 mph 19.3 mph 36 % 0.0 in 381.0 W/m2 CLR
17:49 25.6 °F 9.4 °F 1017.5 in West 14.8 mph 14.8 mph 36 % 0.0 in 376.0 W/m2 CLR
17:54 25.0 °F 8.4 °F 1017.5 in SW 18.5 mph 18.5 mph 35 % 0.0 in 345.0 W/m2 CLR
17:59 25.6 °F 9.4 °F 1017.5 in WSW 16.7 mph 16.7 mph 36 % 0.0 in 334.0 W/m2 CLR
18:04 25.6 °F 9.4 °F 1017.5 in WSW 18.5 mph 18.5 mph 36 % 0.0 in 311.0 W/m2 CLR
18:09 25.0 °F 8.9 °F 1017.5 in WSW 18.5 mph 18.5 mph 36 % 0.0 in 320.0 W/m2 CLR
18:14 25.0 °F 8.9 °F 1017.5 in SW 20.4 mph 20.4 mph 36 % 0.0 in 287.0 W/m2 CLR
18:19 25.0 °F 9.3 °F 1017.5 in WSW 22.2 mph 22.2 mph 37 % 0.0 in 278.0 W/m2 CLR
18:24 24.4 °F 8.8 °F 1017.5 in West 18.5 mph 18.5 mph 37 % 0.0 in 272.0 W/m2 CLR
18:29 24.4 °F 8.8 °F 1017.5 in WSW 18.5 mph 18.5 mph 37 % 0.0 in 265.0 W/m2 CLR
18:34 24.4 °F 8.8 °F 1017.5 in SW 27.8 mph 27.8 mph 37 % 0.0 in 244.0 W/m2 CLR
18:39 24.4 °F 9.2 °F 1017.5 in SSW 13.0 mph 13.0 mph 38 % 0.0 in 229.0 W/m2 CLR
18:44 24.4 °F 9.2 °F 1017.5 in SW 16.7 mph 16.7 mph 38 % 0.0 in 213.0 W/m2 CLR
18:49 24.4 °F 9.2 °F 1017.2 in SW 27.8 mph 27.8 mph 38 % 0.0 in 197.0 W/m2 CLR
18:54 23.9 °F 8.7 °F 1017.5 in WSW 27.8 mph 27.8 mph 38 % 0.0 in 181.0 W/m2 CLR
18:59 23.9 °F 8.7 °F 1017.2 in WSW 29.6 mph 29.6 mph 38 % 0.0 in 160.0 W/m2 CLR
19:04 23.9 °F 8.7 °F 1017.5 in WSW 22.5 mph 22.5 mph 38 % 0.0 in 146.0 W/m2 CLR
19:09 23.9 °F 8.7 °F 1017.5 in WSW 19.3 mph 19.3 mph 38 % 0.0 in 130.0 W/m2 CLR
19:14 23.9 °F 8.7 °F 1017.5 in West 25.9 mph 25.9 mph 38 % 0.0 in 116.0 W/m2 CLR
19:19 23.9 °F 8.7 °F 1017.5 in SW 25.9 mph 25.9 mph 38 % 0.0 in 102.0 W/m2 CLR
19:24 23.9 °F 8.3 °F 1017.5 in WSW 25.9 mph 25.9 mph 37 % 0.0 in 91.0 W/m2 CLR
19:29 23.3 °F 7.8 °F 1017.5 in WSW 24.1 mph 24.1 mph 37 % 0.0 in 79.0 W/m2 FEW
19:34 23.3 °F 8.2 °F 1017.5 in West 27.8 mph 27.8 mph 38 % 0.0 in 67.0 W/m2 FEW
19:39 23.3 °F 8.2 °F 1017.5 in SW 29.6 mph 29.6 mph 38 % 0.0 in 54.0 W/m2 SCT
19:44 23.3 °F 8.6 °F 1017.5 in WSW 18.5 mph 18.5 mph 39 % 0.0 in 44.0 W/m2 SCT
19:49 22.8 °F 8.1 °F 1017.5 in WSW 13.0 mph 13.0 mph 39 % 0.0 in 37.0 W/m2 BKN
19:54 22.8 °F 8.1 °F 1017.5 in WSW 18.5 mph 18.5 mph 39 % 0.0 in 30.0 W/m2 BKN
19:59 22.2 °F 7.2 °F 1017.5 in SW 22.2 mph 22.2 mph 38 % 0.0 in 23.0 W/m2 BKN
20:04 22.2 °F 7.2 °F 1017.5 in WSW 18.5 mph 18.5 mph 38 % 0.0 in 16.0 W/m2 BKN
20:09 22.2 °F 7.2 °F 1017.8 in SW 25.9 mph 25.9 mph 38 % 0.0 in 12.0 W/m2 BKN
20:14 22.2 °F 7.2 °F 1017.8 in WSW 20.9 mph 20.9 mph 38 % 0.0 in 9.0 W/m2 BKN
20:19 22.2 °F 7.6 °F 1017.8 in SW 14.8 mph 14.8 mph 39 % 0.0 in 5.0 W/m2 OVC
20:24 21.7 °F 7.1 °F 1017.8 in Calm   0.2 mph 39 % 0.0 in 0.0 W/m2 OVC
20:29 21.1 °F 6.6 °F 1017.8 in SW 11.3 mph 11.3 mph 39 % 0.0 in 0.0 W/m2 OVC
20:34 20.6 °F 6.5 °F 1017.8 in SSW 13.0 mph 13.0 mph 40 % 0.0 in 0.0 W/m2 CLR
20:39 20.6 °F 6.8 °F 1017.8 in SW 14.8 mph 14.8 mph 41 % 0.0 in 0.0 W/m2 CLR
20:44 20.6 °F 6.8 °F 1017.8 in WSW 16.7 mph 16.7 mph 41 % 0.0 in 0.0 W/m2 CLR
20:49 20.6 °F 7.2 °F 1017.8 in SW 1.6 mph   42 % 0.0 in 0.0 W/m2 CLR
20:54 20.0 °F 6.7 °F 1018.2 in SW 5.6 mph 5.6 mph 42 % 0.0 in 0.0 W/m2 CLR
20:59 19.4 °F 6.6 °F 1018.2 in SW 13.0 mph 13.0 mph 43 % 0.0 in 0.0 W/m2 CLR
21:04 18.9 °F 6.1 °F 1018.5 in SW 18.5 mph 18.5 mph 43 % 0.0 in 0.0 W/m2 CLR
21:09 18.9 °F 6.1 °F 1018.5 in SSW 25.9 mph 25.9 mph 43 % 0.0 in 0.0 W/m2 CLR
21:14 19.4 °F 6.6 °F 1018.5 in West 24.1 mph 24.1 mph 43 % 0.0 in 0.0 W/m2 CLR
21:19 20.6 °F 7.9 °F 1018.5 in WSW 20.4 mph 20.4 mph 44 % 0.0 in 0.0 W/m2 CLR
21:24 20.6 °F 7.9 °F 1018.5 in SSW 20.9 mph 20.9 mph 44 % 0.0 in 0.0 W/m2 CLR
21:29 20.6 °F 8.2 °F 1018.8 in SW 18.5 mph 18.5 mph 45 % 0.0 in 0.0 W/m2 CLR
21:30 20.6 °F 8.2 °F 1018.8 in SSW 18.5 mph 18.5 mph 45 % 0.0 in 0.0 W/m2 CLR
21:35 20.6 °F 8.2 °F 1018.8 in SSW 20.4 mph 20.4 mph 45 % 0.0 in 0.0 W/m2 CLR
21:40 20.6 °F 8.2 °F 1018.8 in WSW 31.5 mph 31.5 mph 45 % 0.0 in 0.0 W/m2 CLR
21:45 20.6 °F 8.2 °F 1018.8 in SW 22.2 mph 22.2 mph 45 % 0.0 in 0.0 W/m2 CLR
21:50 20.6 °F 8.6 °F 1018.8 in SW 18.5 mph 18.5 mph 46 % 0.0 in 0.0 W/m2 CLR
21:55 20.6 °F 8.6 °F 1018.8 in SW 20.4 mph 20.4 mph 46 % 0.0 in 0.0 W/m2 CLR
22:00 20.0 °F 8.3 °F 1018.8 in WSW 24.1 mph 24.1 mph 47 % 0.0 in 0.0 W/m2 CLR
22:05 20.6 °F 9.2 °F 1018.8 in WSW 31.5 mph 31.5 mph 48 % 0.0 in 0.0 W/m2 CLR
22:10 20.6 °F 8.8 °F 1018.8 in SW 33.3 mph 33.3 mph 47 % 0.0 in 0.0 W/m2 CLR
22:15 20.6 °F 8.8 °F 1018.8 in SSW 20.4 mph 20.4 mph 47 % 0.0 in 0.0 W/m2 CLR
22:20 20.6 °F 8.8 °F 1018.8 in SSW 18.5 mph 18.5 mph 47 % 0.0 in 0.0 W/m2 CLR
22:25 20.0 °F 8.7 °F 1018.8 in SW 25.9 mph 25.9 mph 48 % 0.0 in 0.0 W/m2 CLR
22:30 20.0 °F 8.7 °F 1018.8 in SSW 27.8 mph 27.8 mph 48 % 0.0 in 0.0 W/m2 CLR
22:35 20.0 °F 8.9 °F 1018.8 in SSW 20.4 mph 20.4 mph 49 % 0.0 in 0.0 W/m2 CLR
22:40 20.0 °F 9.3 °F 1018.8 in SSW 31.5 mph 31.5 mph 50 % 0.0 in 0.0 W/m2 CLR
22:45 20.0 °F 9.3 °F 1018.8 in SSW 25.9 mph 25.9 mph 50 % 0.0 in 0.0 W/m2 CLR
22:50 20.0 °F 9.3 °F 1018.8 in SW 25.9 mph 25.9 mph 50 % 0.0 in 0.0 W/m2 CLR
22:55 20.0 °F 9.6 °F 1018.8 in SSW 22.2 mph 22.2 mph 51 % 0.0 in 0.0 W/m2 CLR
23:00 20.0 °F 9.6 °F 1018.8 in SSW 31.5 mph 31.5 mph 51 % 0.0 in 0.0 W/m2 CLR
23:05 20.0 °F 9.3 °F 1018.8 in SSW 37.0 mph 37.0 mph 50 % 0.0 in 0.0 W/m2 CLR
23:10 20.0 °F 9.3 °F 1018.8 in SSW 24.1 mph 24.1 mph 50 % 0.0 in 0.0 W/m2 CLR
23:15 20.0 °F 9.3 °F 1019.2 in SSW 25.9 mph 25.9 mph 50 % 0.0 in 0.0 W/m2 CLR
23:20 20.0 °F 9.6 °F 1019.2 in SSW 25.9 mph 25.9 mph 51 % 0.0 in 0.0 W/m2 CLR
23:25 20.0 °F 9.8 °F 1019.2 in SSW 24.1 mph 24.1 mph 52 % 0.0 in 0.0 W/m2 CLR
23:30 20.0 °F 9.8 °F 1019.2 in SSW 27.8 mph 27.8 mph 52 % 0.0 in 0.0 W/m2 CLR
23:35 19.4 °F 9.3 °F 1019.2 in SSW 29.6 mph 29.6 mph 52 % 0.0 in 0.0 W/m2 CLR
23:40 19.4 °F 9.6 °F 1019.2 in SSW 22.2 mph 22.2 mph 53 % 0.0 in 0.0 W/m2 CLR
23:45 19.4 °F 9.6 °F 1019.2 in SW 24.1 mph 24.1 mph 53 % 0.0 in 0.0 W/m2 CLR
23:50 19.4 °F 9.6 °F 1019.2 in SSW 29.6 mph 29.6 mph 53 % 0.0 in 0.0 W/m2 CLR
23:55 19.4 °F 9.9 °F 1019.2 in SSW 25.9 mph 25.9 mph 54 % 0.0 in 0.0 W/m2 CLR
Lo Temps de Massalio
Compliments of Weather Underground - 1.25 mb